createdAt,value
2022-08-29T00:02:39.769Z,17.69
2022-08-29T00:07:50.255Z,17.65
2022-08-29T00:13:02.911Z,17.59
2022-08-29T00:18:10.554Z,17.54
2022-08-29T00:23:35.502Z,17.51
2022-08-29T00:28:51.048Z,17.46
2022-08-29T00:34:28.745Z,17.40
2022-08-29T00:39:46.902Z,17.34
2022-08-29T00:45:11.479Z,17.30
2022-08-29T00:50:36.594Z,17.24
2022-08-29T00:55:50.319Z,17.18
2022-08-29T01:01:18.972Z,17.13
2022-08-29T01:06:40.658Z,17.06
2022-08-29T01:12:19.282Z,17.01
2022-08-29T01:17:54.014Z,16.96
2022-08-29T01:23:09.627Z,16.88
2022-08-29T01:28:37.898Z,16.82
2022-08-29T01:33:54.445Z,16.77
2022-08-29T01:39:00.109Z,16.72
2022-08-29T01:44:20.230Z,16.67
2022-08-29T01:49:27.532Z,16.62
2022-08-29T01:54:58.591Z,16.61
2022-08-29T02:00:18.760Z,16.53
2022-08-29T02:05:30.928Z,16.48
2022-08-29T02:10:39.477Z,16.43
2022-08-29T02:16:03.665Z,16.41
2022-08-29T02:21:27.468Z,16.35
2022-08-29T02:26:50.186Z,16.30
2022-08-29T02:32:19.154Z,16.28
2022-08-29T02:37:27.616Z,16.22
2022-08-29T02:42:38.942Z,16.18
2022-08-29T02:47:58.232Z,16.15
2022-08-29T02:53:21.334Z,16.11
2022-08-29T02:58:50.957Z,16.07
2022-08-29T03:04:26.222Z,15.99
2022-08-29T03:09:37.845Z,15.89
2022-08-29T03:14:47.537Z,15.84
2022-08-29T03:19:59.461Z,15.78
2022-08-29T03:25:09.550Z,15.71
2022-08-29T03:30:23.986Z,15.66
2022-08-29T03:35:36.009Z,15.62
2022-08-29T03:40:44.391Z,15.55
2022-08-29T03:45:53.001Z,15.47
2022-08-29T03:51:15.978Z,15.43
2022-08-29T03:56:21.618Z,15.36
2022-08-29T04:01:39.927Z,15.33
2022-08-29T04:06:56.932Z,15.31
2022-08-29T04:12:04.145Z,15.26
2022-08-29T04:17:11.624Z,15.23
2022-08-29T04:22:28.652Z,15.22
2022-08-29T04:27:44.866Z,15.17
2022-08-29T04:33:07.531Z,15.15
2022-08-29T04:38:31.775Z,15.14
2022-08-29T04:43:58.294Z,15.14
2022-08-29T04:49:12.618Z,15.13
2022-08-29T04:54:24.003Z,15.11
2022-08-29T04:59:35.632Z,15.14
2022-08-29T05:04:46.992Z,15.15
2022-08-29T05:10:01.693Z,15.20
2022-08-29T05:15:07.457Z,15.27
2022-08-29T05:20:16.056Z,15.35
2022-08-29T05:25:37.472Z,15.45
2022-08-29T05:31:01.560Z,15.56
2022-08-29T05:36:07.510Z,15.69
2022-08-29T05:41:17.442Z,15.85
2022-08-29T05:46:24.694Z,16.68
2022-08-29T05:51:39.654Z,17.33
2022-08-29T05:57:03.510Z,17.63
2022-08-29T06:02:27.239Z,18.68
2022-08-29T06:07:41.055Z,20.24
2022-08-29T06:13:06.262Z,24.17
2022-08-29T06:18:12.773Z,26.49
2022-08-29T06:23:21.244Z,27.46
2022-08-29T06:28:53.449Z,27.65
2022-08-29T06:34:10.995Z,28.97
2022-08-29T06:39:22.318Z,29.09
2022-08-29T06:44:34.670Z,29.48
2022-08-29T06:49:41.414Z,31.35
2022-08-29T06:54:57.505Z,32.04
2022-08-29T07:00:21.709Z,30.36
2022-08-29T07:05:28.501Z,31.89
2022-08-29T07:10:42.513Z,33.75
2022-08-29T07:15:57.957Z,33.53
2022-08-29T07:21:03.448Z,34.58
2022-08-29T07:26:25.176Z,33.13
2022-08-29T07:31:32.742Z,32.41
2022-08-29T07:36:47.878Z,32.11
2022-08-29T07:47:39.464Z,31.13
2022-08-29T07:52:54.719Z,29.83
2022-08-29T07:58:17.718Z,29.25
2022-08-29T08:03:36.752Z,28.73
2022-08-29T08:08:53.694Z,28.86
2022-08-29T08:19:35.179Z,28.16
2022-08-29T08:24:38.698Z,27.77
2022-08-29T08:29:59.844Z,27.50
2022-08-29T08:35:11.286Z,27.21
2022-08-29T08:40:25.215Z,26.88
2022-08-29T08:45:37.081Z,26.71
2022-08-29T08:50:54.419Z,26.43
2022-08-29T08:56:04.166Z,26.86
2022-08-29T09:01:23.901Z,26.73
2022-08-29T09:06:53.705Z,26.19
2022-08-29T09:12:28.896Z,26.06
2022-08-29T09:17:53.545Z,25.88
2022-08-29T09:23:08.378Z,25.71
2022-08-29T09:28:19.551Z,25.54
2022-08-29T09:33:49.273Z,25.53
2022-08-29T09:44:39.444Z,25.29
2022-08-29T09:50:12.722Z,25.32
2022-08-29T10:01:14.835Z,25.09
2022-08-29T10:06:29.439Z,25.22
2022-08-29T10:11:51.799Z,25.07
2022-08-29T10:17:26.896Z,25.01
2022-08-29T10:22:44.205Z,25.14
2022-08-29T10:28:05.494Z,25.28
2022-08-29T10:33:35.828Z,25.32
2022-08-29T10:38:51.686Z,25.36
2022-08-29T10:44:09.521Z,25.41
2022-08-29T10:49:31.731Z,25.50
2022-08-29T10:54:54.064Z,25.37
2022-08-29T11:00:09.900Z,25.23
2022-08-29T11:05:19.389Z,25.11
2022-08-29T11:10:29.892Z,25.21
2022-08-29T11:15:59.381Z,25.00
2022-08-29T11:21:19.666Z,25.16
2022-08-29T11:26:45.175Z,25.10
2022-08-29T11:32:04.049Z,25.26
2022-08-29T11:37:45.867Z,25.26
2022-08-29T11:42:52.780Z,25.25
2022-08-29T11:48:22.458Z,25.40
2022-08-29T11:53:38.672Z,25.43
2022-08-29T11:58:52.846Z,25.39
2022-08-29T12:03:59.846Z,25.34
2022-08-29T12:09:18.357Z,25.50
2022-08-29T12:14:37.706Z,25.56
2022-08-29T12:19:53.266Z,25.61
2022-08-29T12:25:08.795Z,25.64
2022-08-29T12:30:23.484Z,25.80
2022-08-29T12:35:59.837Z,25.76
2022-08-29T12:41:26.533Z,25.79
2022-08-29T12:46:35.999Z,25.67
2022-08-29T12:51:45.069Z,25.48
2022-08-29T12:56:53.992Z,25.61
2022-08-29T13:02:04.520Z,25.72
2022-08-29T13:07:15.661Z,25.61
2022-08-29T13:12:30.576Z,25.45
2022-08-29T13:18:22.172Z,25.35
2022-08-29T13:23:48.030Z,25.27
2022-08-29T13:28:57.822Z,25.32
2022-08-29T13:34:25.924Z,25.34
2022-08-29T13:39:53.957Z,25.38
2022-08-29T13:45:17.483Z,25.40
2022-08-29T13:50:23.729Z,25.43
2022-08-29T13:55:36.260Z,25.34
2022-08-29T14:01:29.547Z,25.34
2022-08-29T14:06:36.821Z,25.20
2022-08-29T14:11:42.710Z,25.25
2022-08-29T14:16:54.030Z,25.13
2022-08-29T14:22:02.108Z,24.91
2022-08-29T14:27:14.055Z,24.78
2022-08-29T14:32:26.313Z,24.69
2022-08-29T14:37:36.012Z,24.67
2022-08-29T14:42:48.915Z,24.71
2022-08-29T14:47:54.981Z,24.72
2022-08-29T14:52:59.495Z,24.69
2022-08-29T14:58:04.744Z,24.63
2022-08-29T15:03:11.100Z,24.59
2022-08-29T15:08:15.983Z,24.57
2022-08-29T15:13:19.793Z,24.54
2022-08-29T15:19:05.498Z,24.48
2022-08-29T15:23:53.970Z,24.41
2022-08-29T15:28:59.663Z,24.39
2022-08-29T15:34:06.160Z,24.39
2022-08-29T15:39:11.389Z,24.32
2022-08-29T15:44:15.730Z,24.21
2022-08-29T15:49:22.245Z,24.16
2022-08-29T15:54:27.230Z,24.14
2022-08-29T15:59:56.725Z,24.12
2022-08-29T16:04:57.957Z,24.08
2022-08-29T16:10:04.808Z,24.04
2022-08-29T16:15:14.702Z,23.99
2022-08-29T16:20:19.661Z,23.93
2022-08-29T16:25:26.595Z,23.90
2022-08-29T16:30:30.631Z,23.84
2022-08-29T16:35:36.456Z,23.81
2022-08-29T16:40:40.147Z,23.78
2022-08-29T16:45:44.255Z,23.80
2022-08-29T16:50:50.150Z,23.79
2022-08-29T16:55:57.142Z,23.77
2022-08-29T17:01:01.182Z,23.75
2022-08-29T17:06:08.279Z,23.76
2022-08-29T17:11:13.121Z,23.67
2022-08-29T17:16:17.628Z,23.63
2022-08-29T17:21:23.659Z,23.57
2022-08-29T17:26:28.256Z,23.48
2022-08-29T17:31:32.053Z,23.41
2022-08-29T17:36:45.220Z,23.35
2022-08-29T17:41:51.719Z,23.28
2022-08-29T17:46:55.194Z,23.20
2022-08-29T17:52:00.691Z,23.17
2022-08-29T17:57:04.690Z,23.09
2022-08-29T18:02:08.978Z,23.04
2022-08-29T18:07:13.949Z,22.97
2022-08-29T18:12:17.339Z,22.88
2022-08-29T18:17:20.531Z,22.80
2022-08-29T18:22:27.697Z,22.75
2022-08-29T18:27:31.395Z,22.69
2022-08-29T18:32:37.171Z,22.58
2022-08-29T18:37:42.164Z,22.51
2022-08-29T18:42:49.183Z,22.44
2022-08-29T18:47:55.549Z,22.37
2022-08-29T18:53:00.303Z,22.33
2022-08-29T18:58:04.474Z,22.25
2022-08-29T19:03:08.015Z,22.20
2022-08-29T19:08:13.283Z,22.13
2022-08-29T19:13:17.844Z,22.10
2022-08-29T19:18:21.360Z,21.98
2022-08-29T19:23:26.882Z,21.94
2022-08-29T19:28:30.869Z,21.90
2022-08-29T19:33:47.562Z,21.82
2022-08-29T19:38:54.039Z,21.74
2022-08-29T19:44:00.714Z,21.68
2022-08-29T19:49:07.565Z,21.62
2022-08-29T19:54:13.902Z,21.54
2022-08-29T19:59:17.523Z,21.50
2022-08-29T20:04:24.769Z,21.44
2022-08-29T20:09:32.365Z,21.38
2022-08-29T20:14:36.299Z,21.34
2022-08-29T20:19:40.822Z,21.30
2022-08-29T20:24:46.167Z,21.27
2022-08-29T20:29:50.652Z,21.21
2022-08-29T20:34:54.745Z,21.16
2022-08-29T20:40:00.488Z,21.10
2022-08-29T20:45:05.182Z,21.02
2022-08-29T20:50:11.245Z,20.98
2022-08-29T20:55:18.232Z,20.95
2022-08-29T21:00:22.494Z,20.88
2022-08-29T21:05:42.795Z,20.80
2022-08-29T21:10:50.288Z,20.71
2022-08-29T21:15:56.776Z,20.67
2022-08-29T21:21:02.351Z,20.61
2022-08-29T21:26:08.406Z,20.56
2022-08-29T21:31:17.169Z,20.47
2022-08-29T21:36:22.831Z,20.38
2022-08-29T21:41:30.835Z,20.29
2022-08-29T21:46:37.557Z,20.20
2022-08-29T21:51:42.430Z,20.13
2022-08-29T21:56:49.476Z,20.02
2022-08-29T22:01:56.402Z,19.96
2022-08-29T22:07:02.065Z,19.88
2022-08-29T22:12:09.645Z,19.83
2022-08-29T22:17:18.621Z,19.74
2022-08-29T22:22:22.720Z,19.70
2022-08-29T22:27:29.866Z,19.72
2022-08-29T22:32:36.217Z,19.66
2022-08-29T22:37:40.264Z,19.61
2022-08-29T22:42:46.261Z,19.54
2022-08-29T22:47:51.210Z,19.47
2022-08-29T22:52:58.792Z,19.41
2022-08-29T22:58:05.109Z,19.35
2022-08-29T23:03:09.664Z,19.31
2022-08-29T23:08:13.438Z,19.26
2022-08-29T23:13:18.331Z,19.21
2022-08-29T23:18:22.295Z,19.15
2022-08-29T23:23:28.683Z,19.09
2022-08-29T23:28:36.532Z,19.09
2022-08-29T23:33:40.727Z,19.10
2022-08-29T23:38:44.554Z,19.09
2022-08-29T23:43:49.520Z,19.04
2022-08-29T23:48:56.519Z,19.00
2022-08-29T23:54:03.390Z,18.97
2022-08-29T23:59:33.833Z,18.99
